sensor_id;sensor_type;location;lat;lon;timestamp;P1;durP1;ratioP1;P2;durP2;ratioP2
830;SDS011;397;50.564;7.272;2023-11-18T00:01:55;29.87;;;19.90;;
830;SDS011;397;50.564;7.272;2023-11-18T00:04:22;33.60;;;20.37;;
830;SDS011;397;50.564;7.272;2023-11-18T00:06:50;27.17;;;17.73;;
830;SDS011;397;50.564;7.272;2023-11-18T00:09:19;28.57;;;19.13;;
830;SDS011;397;50.564;7.272;2023-11-18T00:11:49;29.03;;;21.30;;
830;SDS011;397;50.564;7.272;2023-11-18T00:14:16;22.47;;;17.57;;
830;SDS011;397;50.564;7.272;2023-11-18T00:16:44;27.20;;;17.47;;
830;SDS011;397;50.564;7.272;2023-11-18T00:19:11;26.00;;;17.97;;
830;SDS011;397;50.564;7.272;2023-11-18T00:21:39;25.53;;;17.33;;
830;SDS011;397;50.564;7.272;2023-11-18T00:24:08;37.13;;;26.07;;
830;SDS011;397;50.564;7.272;2023-11-18T00:26:35;27.67;;;19.03;;
830;SDS011;397;50.564;7.272;2023-11-18T00:29:03;33.83;;;22.90;;
830;SDS011;397;50.564;7.272;2023-11-18T00:31:30;27.57;;;18.97;;
830;SDS011;397;50.564;7.272;2023-11-18T00:33:58;26.30;;;18.17;;
830;SDS011;397;50.564;7.272;2023-11-18T00:36:25;28.57;;;19.80;;
830;SDS011;397;50.564;7.272;2023-11-18T00:38:54;27.80;;;20.67;;
830;SDS011;397;50.564;7.272;2023-11-18T00:41:21;30.50;;;20.33;;
830;SDS011;397;50.564;7.272;2023-11-18T00:43:49;23.23;;;16.47;;
830;SDS011;397;50.564;7.272;2023-11-18T00:46:16;26.97;;;19.10;;
830;SDS011;397;50.564;7.272;2023-11-18T00:48:44;24.30;;;16.57;;
830;SDS011;397;50.564;7.272;2023-11-18T00:51:12;25.67;;;17.20;;
830;SDS011;397;50.564;7.272;2023-11-18T00:53:39;25.60;;;17.80;;
830;SDS011;397;50.564;7.272;2023-11-18T00:56:07;27.77;;;18.37;;
830;SDS011;397;50.564;7.272;2023-11-18T00:58:35;26.87;;;17.80;;
830;SDS011;397;50.564;7.272;2023-11-18T01:01:04;28.37;;;20.10;;
830;SDS011;397;50.564;7.272;2023-11-18T01:03:32;26.17;;;19.00;;
830;SDS011;397;50.564;7.272;2023-11-18T01:06:00;24.43;;;17.07;;
830;SDS011;397;50.564;7.272;2023-11-18T01:08:27;27.63;;;18.00;;
830;SDS011;397;50.564;7.272;2023-11-18T01:10:55;25.47;;;17.67;;
830;SDS011;397;50.564;7.272;2023-11-18T01:13:22;21.73;;;16.53;;
830;SDS011;397;50.564;7.272;2023-11-18T01:15:52;28.90;;;19.37;;
830;SDS011;397;50.564;7.272;2023-11-18T01:18:19;26.13;;;18.30;;
830;SDS011;397;50.564;7.272;2023-11-18T01:20:47;25.60;;;16.47;;
830;SDS011;397;50.564;7.272;2023-11-18T01:23:14;24.80;;;16.00;;
830;SDS011;397;50.564;7.272;2023-11-18T01:25:42;19.00;;;15.50;;
830;SDS011;397;50.564;7.272;2023-11-18T01:28:09;26.27;;;16.60;;
830;SDS011;397;50.564;7.272;2023-11-18T01:30:37;22.80;;;17.10;;
830;SDS011;397;50.564;7.272;2023-11-18T01:33:04;22.17;;;15.47;;
830;SDS011;397;50.564;7.272;2023-11-18T01:35:33;19.50;;;16.17;;
830;SDS011;397;50.564;7.272;2023-11-18T01:38:01;24.10;;;15.77;;
830;SDS011;397;50.564;7.272;2023-11-18T01:40:30;21.03;;;15.93;;
830;SDS011;397;50.564;7.272;2023-11-18T01:42:59;23.70;;;16.47;;
830;SDS011;397;50.564;7.272;2023-11-18T01:45:27;24.80;;;16.90;;
830;SDS011;397;50.564;7.272;2023-11-18T01:47:56;28.23;;;17.87;;
830;SDS011;397;50.564;7.272;2023-11-18T01:50:23;23.83;;;17.13;;
830;SDS011;397;50.564;7.272;2023-11-18T01:52:51;26.77;;;16.40;;
830;SDS011;397;50.564;7.272;2023-11-18T01:55:19;24.13;;;17.07;;
830;SDS011;397;50.564;7.272;2023-11-18T01:57:47;26.03;;;17.17;;
830;SDS011;397;50.564;7.272;2023-11-18T02:00:16;27.13;;;18.03;;
830;SDS011;397;50.564;7.272;2023-11-18T02:02:44;27.63;;;17.70;;
830;SDS011;397;50.564;7.272;2023-11-18T02:05:12;25.40;;;18.00;;
830;SDS011;397;50.564;7.272;2023-11-18T02:07:39;24.83;;;16.83;;
830;SDS011;397;50.564;7.272;2023-11-18T02:10:07;25.00;;;17.23;;
830;SDS011;397;50.564;7.272;2023-11-18T02:12:43;26.13;;;15.30;;
830;SDS011;397;50.564;7.272;2023-11-18T02:15:26;28.90;;;19.50;;
830;SDS011;397;50.564;7.272;2023-11-18T02:17:57;28.13;;;20.40;;
830;SDS011;397;50.564;7.272;2023-11-18T02:20:26;28.47;;;20.27;;
830;SDS011;397;50.564;7.272;2023-11-18T02:22:54;30.87;;;19.27;;
830;SDS011;397;50.564;7.272;2023-11-18T02:25:23;35.23;;;23.27;;
830;SDS011;397;50.564;7.272;2023-11-18T02:27:52;33.10;;;24.97;;
830;SDS011;397;50.564;7.272;2023-11-18T02:30:20;34.50;;;23.10;;
830;SDS011;397;50.564;7.272;2023-11-18T02:32:54;43.00;;;26.43;;
830;SDS011;397;50.564;7.272;2023-11-18T02:35:32;39.93;;;25.90;;
830;SDS011;397;50.564;7.272;2023-11-18T02:38:04;37.90;;;25.50;;
830;SDS011;397;50.564;7.272;2023-11-18T02:40:37;39.70;;;25.00;;
830;SDS011;397;50.564;7.272;2023-11-18T02:43:08;37.40;;;24.63;;
830;SDS011;397;50.564;7.272;2023-11-18T02:45:36;44.47;;;28.03;;
830;SDS011;397;50.564;7.272;2023-11-18T02:48:05;41.40;;;27.17;;
830;SDS011;397;50.564;7.272;2023-11-18T02:50:33;39.73;;;25.00;;
830;SDS011;397;50.564;7.272;2023-11-18T02:53:05;42.90;;;27.57;;
830;SDS011;397;50.564;7.272;2023-11-18T02:55:35;42.80;;;26.43;;
830;SDS011;397;50.564;7.272;2023-11-18T02:58:02;45.63;;;28.47;;
830;SDS011;397;50.564;7.272;2023-11-18T03:00:30;50.73;;;29.70;;
830;SDS011;397;50.564;7.272;2023-11-18T03:02:58;38.23;;;26.17;;
830;SDS011;397;50.564;7.272;2023-11-18T03:05:26;44.13;;;27.70;;
830;SDS011;397;50.564;7.272;2023-11-18T03:07:53;41.40;;;26.50;;
830;SDS011;397;50.564;7.272;2023-11-18T03:10:23;41.97;;;24.67;;
830;SDS011;397;50.564;7.272;2023-11-18T03:12:51;39.80;;;24.73;;
830;SDS011;397;50.564;7.272;2023-11-18T03:15:20;43.47;;;25.80;;
830;SDS011;397;50.564;7.272;2023-11-18T03:17:48;37.70;;;22.80;;
830;SDS011;397;50.564;7.272;2023-11-18T03:20:17;43.47;;;26.03;;
830;SDS011;397;50.564;7.272;2023-11-18T03:22:46;39.67;;;25.63;;
830;SDS011;397;50.564;7.272;2023-11-18T03:25:14;38.60;;;24.70;;
830;SDS011;397;50.564;7.272;2023-11-18T03:27:41;34.90;;;22.63;;
830;SDS011;397;50.564;7.272;2023-11-18T03:30:11;30.57;;;21.13;;
830;SDS011;397;50.564;7.272;2023-11-18T03:32:40;32.50;;;21.47;;
830;SDS011;397;50.564;7.272;2023-11-18T03:35:07;33.43;;;24.03;;
830;SDS011;397;50.564;7.272;2023-11-18T03:37:35;34.63;;;20.40;;
830;SDS011;397;50.564;7.272;2023-11-18T03:40:10;32.77;;;21.70;;
830;SDS011;397;50.564;7.272;2023-11-18T03:42:39;30.20;;;21.50;;
830;SDS011;397;50.564;7.272;2023-11-18T03:45:07;30.80;;;17.90;;
830;SDS011;397;50.564;7.272;2023-11-18T03:47:36;30.87;;;20.17;;
830;SDS011;397;50.564;7.272;2023-11-18T03:50:03;34.93;;;21.43;;
830;SDS011;397;50.564;7.272;2023-11-18T03:52:33;28.03;;;19.37;;
830;SDS011;397;50.564;7.272;2023-11-18T03:55:05;28.07;;;20.43;;
830;SDS011;397;50.564;7.272;2023-11-18T03:57:33;29.50;;;19.30;;
830;SDS011;397;50.564;7.272;2023-11-18T04:00:01;28.70;;;20.37;;
830;SDS011;397;50.564;7.272;2023-11-18T04:02:29;28.73;;;20.30;;
830;SDS011;397;50.564;7.272;2023-11-18T04:04:56;33.63;;;20.63;;
830;SDS011;397;50.564;7.272;2023-11-18T04:07:24;28.80;;;18.30;;
830;SDS011;397;50.564;7.272;2023-11-18T04:09:51;25.23;;;18.77;;
830;SDS011;397;50.564;7.272;2023-11-18T04:12:19;28.23;;;17.60;;
830;SDS011;397;50.564;7.272;2023-11-18T04:14:47;26.20;;;19.37;;
830;SDS011;397;50.564;7.272;2023-11-18T04:17:14;26.30;;;19.10;;
830;SDS011;397;50.564;7.272;2023-11-18T04:19:42;25.37;;;18.57;;
830;SDS011;397;50.564;7.272;2023-11-18T04:22:09;26.73;;;18.90;;
830;SDS011;397;50.564;7.272;2023-11-18T04:24:37;27.37;;;19.77;;
830;SDS011;397;50.564;7.272;2023-11-18T04:27:05;35.70;;;21.20;;
830;SDS011;397;50.564;7.272;2023-11-18T04:29:32;27.17;;;18.80;;
830;SDS011;397;50.564;7.272;2023-11-18T04:32:02;28.70;;;18.70;;
830;SDS011;397;50.564;7.272;2023-11-18T04:34:29;27.13;;;19.27;;
830;SDS011;397;50.564;7.272;2023-11-18T04:36:58;27.80;;;19.70;;
830;SDS011;397;50.564;7.272;2023-11-18T04:39:26;28.43;;;20.20;;
830;SDS011;397;50.564;7.272;2023-11-18T04:41:55;27.00;;;18.47;;
830;SDS011;397;50.564;7.272;2023-11-18T04:44:22;33.73;;;20.53;;
830;SDS011;397;50.564;7.272;2023-11-18T04:46:50;30.87;;;18.57;;
830;SDS011;397;50.564;7.272;2023-11-18T04:49:17;26.27;;;17.37;;
830;SDS011;397;50.564;7.272;2023-11-18T04:51:45;25.97;;;18.50;;
830;SDS011;397;50.564;7.272;2023-11-18T04:54:12;23.77;;;17.17;;
830;SDS011;397;50.564;7.272;2023-11-18T04:56:40;27.80;;;18.07;;
830;SDS011;397;50.564;7.272;2023-11-18T04:59:10;29.67;;;18.60;;
830;SDS011;397;50.564;7.272;2023-11-18T05:01:37;26.90;;;19.30;;
830;SDS011;397;50.564;7.272;2023-11-18T05:04:05;25.37;;;17.43;;
830;SDS011;397;50.564;7.272;2023-11-18T05:06:33;26.43;;;16.60;;
830;SDS011;397;50.564;7.272;2023-11-18T05:09:01;24.33;;;16.90;;
830;SDS011;397;50.564;7.272;2023-11-18T05:11:30;23.93;;;16.53;;
830;SDS011;397;50.564;7.272;2023-11-18T05:13:58;23.83;;;17.00;;
830;SDS011;397;50.564;7.272;2023-11-18T05:16:26;26.73;;;17.43;;
830;SDS011;397;50.564;7.272;2023-11-18T05:18:53;29.33;;;17.50;;
830;SDS011;397;50.564;7.272;2023-11-18T05:21:21;27.37;;;19.00;;
830;SDS011;397;50.564;7.272;2023-11-18T05:23:49;28.73;;;16.87;;
830;SDS011;397;50.564;7.272;2023-11-18T05:26:16;28.73;;;17.83;;
830;SDS011;397;50.564;7.272;2023-11-18T05:28:44;30.17;;;20.27;;
830;SDS011;397;50.564;7.272;2023-11-18T05:31:11;31.77;;;20.97;;
830;SDS011;397;50.564;7.272;2023-11-18T05:33:39;36.30;;;24.30;;
830;SDS011;397;50.564;7.272;2023-11-18T05:36:06;29.60;;;21.00;;
830;SDS011;397;50.564;7.272;2023-11-18T05:38:36;30.00;;;19.50;;
830;SDS011;397;50.564;7.272;2023-11-18T05:41:04;27.03;;;20.30;;
830;SDS011;397;50.564;7.272;2023-11-18T05:43:33;27.40;;;19.57;;
830;SDS011;397;50.564;7.272;2023-11-18T05:46:05;30.23;;;20.23;;
830;SDS011;397;50.564;7.272;2023-11-18T05:48:50;33.73;;;23.10;;
830;SDS011;397;50.564;7.272;2023-11-18T05:51:22;30.00;;;20.20;;
830;SDS011;397;50.564;7.272;2023-11-18T05:53:51;29.13;;;21.40;;
830;SDS011;397;50.564;7.272;2023-11-18T05:56:19;27.20;;;19.27;;
830;SDS011;397;50.564;7.272;2023-11-18T05:58:48;26.17;;;20.07;;
830;SDS011;397;50.564;7.272;2023-11-18T06:01:16;29.00;;;18.73;;
830;SDS011;397;50.564;7.272;2023-11-18T06:03:45;24.50;;;16.37;;
830;SDS011;397;50.564;7.272;2023-11-18T06:06:14;24.00;;;13.97;;
830;SDS011;397;50.564;7.272;2023-11-18T06:08:46;26.43;;;17.70;;
830;SDS011;397;50.564;7.272;2023-11-18T06:11:15;24.10;;;17.63;;
830;SDS011;397;50.564;7.272;2023-11-18T06:13:45;21.53;;;15.47;;
830;SDS011;397;50.564;7.272;2023-11-18T06:16:14;25.53;;;14.90;;
830;SDS011;397;50.564;7.272;2023-11-18T06:18:51;22.90;;;16.40;;
830;SDS011;397;50.564;7.272;2023-11-18T06:21:21;25.50;;;16.17;;
830;SDS011;397;50.564;7.272;2023-11-18T06:23:59;22.13;;;16.30;;
830;SDS011;397;50.564;7.272;2023-11-18T06:26:29;22.17;;;14.93;;
830;SDS011;397;50.564;7.272;2023-11-18T06:28:56;25.07;;;16.00;;
830;SDS011;397;50.564;7.272;2023-11-18T06:31:25;25.20;;;15.57;;
830;SDS011;397;50.564;7.272;2023-11-18T06:33:53;25.53;;;17.30;;
830;SDS011;397;50.564;7.272;2023-11-18T06:36:21;20.20;;;15.60;;
830;SDS011;397;50.564;7.272;2023-11-18T06:38:49;19.57;;;14.80;;
830;SDS011;397;50.564;7.272;2023-11-18T06:41:19;19.30;;;14.50;;
830;SDS011;397;50.564;7.272;2023-11-18T06:43:49;18.97;;;14.80;;
830;SDS011;397;50.564;7.272;2023-11-18T06:48:56;23.10;;;15.20;;
830;SDS011;397;50.564;7.272;2023-11-18T06:51:25;23.50;;;14.87;;
830;SDS011;397;50.564;7.272;2023-11-18T06:53:53;20.87;;;14.80;;
830;SDS011;397;50.564;7.272;2023-11-18T06:56:21;22.63;;;15.70;;
830;SDS011;397;50.564;7.272;2023-11-18T06:58:49;28.27;;;16.67;;
830;SDS011;397;50.564;7.272;2023-11-18T07:01:17;18.47;;;15.43;;
830;SDS011;397;50.564;7.272;2023-11-18T07:03:47;21.43;;;16.30;;
830;SDS011;397;50.564;7.272;2023-11-18T07:06:17;19.70;;;14.27;;
830;SDS011;397;50.564;7.272;2023-11-18T07:08:46;22.23;;;15.83;;
830;SDS011;397;50.564;7.272;2023-11-18T07:11:15;19.97;;;15.90;;
830;SDS011;397;50.564;7.272;2023-11-18T07:13:44;21.90;;;16.60;;
830;SDS011;397;50.564;7.272;2023-11-18T07:16:12;25.27;;;17.70;;
830;SDS011;397;50.564;7.272;2023-11-18T07:18:40;22.47;;;17.13;;
830;SDS011;397;50.564;7.272;2023-11-18T07:21:08;23.67;;;17.83;;
830;SDS011;397;50.564;7.272;2023-11-18T07:23:36;27.90;;;19.53;;
830;SDS011;397;50.564;7.272;2023-11-18T07:26:03;27.73;;;18.77;;
830;SDS011;397;50.564;7.272;2023-11-18T07:28:31;24.80;;;19.10;;
830;SDS011;397;50.564;7.272;2023-11-18T07:30:59;19.93;;;16.23;;
830;SDS011;397;50.564;7.272;2023-11-18T07:33:28;22.50;;;17.60;;
830;SDS011;397;50.564;7.272;2023-11-18T07:35:57;21.83;;;16.20;;
830;SDS011;397;50.564;7.272;2023-11-18T07:38:24;22.30;;;15.77;;
830;SDS011;397;50.564;7.272;2023-11-18T07:40:53;20.03;;;15.70;;
830;SDS011;397;50.564;7.272;2023-11-18T07:43:22;21.30;;;15.63;;
830;SDS011;397;50.564;7.272;2023-11-18T07:45:50;19.00;;;15.93;;
830;SDS011;397;50.564;7.272;2023-11-18T07:48:19;24.33;;;16.03;;
830;SDS011;397;50.564;7.272;2023-11-18T07:50:46;15.83;;;14.13;;
830;SDS011;397;50.564;7.272;2023-11-18T07:53:14;19.27;;;13.40;;
830;SDS011;397;50.564;7.272;2023-11-18T07:55:42;18.90;;;15.03;;
830;SDS011;397;50.564;7.272;2023-11-18T07:58:10;21.07;;;15.10;;
830;SDS011;397;50.564;7.272;2023-11-18T08:00:44;20.13;;;13.43;;
830;SDS011;397;50.564;7.272;2023-11-18T08:03:09;17.17;;;14.30;;
830;SDS011;397;50.564;7.272;2023-11-18T08:05:38;22.80;;;15.30;;
830;SDS011;397;50.564;7.272;2023-11-18T08:08:06;22.23;;;15.93;;
830;SDS011;397;50.564;7.272;2023-11-18T08:10:34;19.00;;;13.97;;
830;SDS011;397;50.564;7.272;2023-11-18T08:13:08;18.90;;;14.30;;
830;SDS011;397;50.564;7.272;2023-11-18T08:15:38;23.03;;;15.73;;
830;SDS011;397;50.564;7.272;2023-11-18T08:18:08;17.80;;;13.87;;
830;SDS011;397;50.564;7.272;2023-11-18T08:20:38;18.27;;;12.33;;
830;SDS011;397;50.564;7.272;2023-11-18T08:23:07;16.90;;;13.97;;
830;SDS011;397;50.564;7.272;2023-11-18T08:25:35;19.20;;;14.07;;
830;SDS011;397;50.564;7.272;2023-11-18T08:28:02;16.97;;;13.57;;
830;SDS011;397;50.564;7.272;2023-11-18T08:30:32;17.20;;;13.27;;
830;SDS011;397;50.564;7.272;2023-11-18T08:33:02;21.17;;;14.10;;
830;SDS011;397;50.564;7.272;2023-11-18T08:35:30;18.43;;;14.20;;
830;SDS011;397;50.564;7.272;2023-11-18T08:37:57;20.53;;;13.50;;
830;SDS011;397;50.564;7.272;2023-11-18T08:40:26;16.73;;;13.37;;
830;SDS011;397;50.564;7.272;2023-11-18T08:42:54;22.10;;;15.87;;
830;SDS011;397;50.564;7.272;2023-11-18T08:45:25;21.40;;;15.03;;
830;SDS011;397;50.564;7.272;2023-11-18T08:47:56;21.60;;;14.70;;
830;SDS011;397;50.564;7.272;2023-11-18T08:50:25;19.03;;;14.77;;
830;SDS011;397;50.564;7.272;2023-11-18T08:52:54;17.40;;;11.87;;
830;SDS011;397;50.564;7.272;2023-11-18T08:55:29;17.40;;;14.17;;
830;SDS011;397;50.564;7.272;2023-11-18T08:58:11;13.80;;;11.13;;
830;SDS011;397;50.564;7.272;2023-11-18T09:00:44;18.83;;;11.97;;
830;SDS011;397;50.564;7.272;2023-11-18T09:03:20;15.60;;;13.10;;
830;SDS011;397;50.564;7.272;2023-11-18T09:05:54;21.17;;;15.80;;
830;SDS011;397;50.564;7.272;2023-11-18T09:08:27;22.50;;;14.93;;
830;SDS011;397;50.564;7.272;2023-11-18T09:10:58;17.50;;;12.23;;
830;SDS011;397;50.564;7.272;2023-11-18T09:13:26;19.27;;;12.83;;
830;SDS011;397;50.564;7.272;2023-11-18T09:15:59;18.50;;;12.77;;
830;SDS011;397;50.564;7.272;2023-11-18T09:18:28;15.37;;;12.30;;
830;SDS011;397;50.564;7.272;2023-11-18T09:20:58;16.57;;;12.87;;
830;SDS011;397;50.564;7.272;2023-11-18T09:23:28;14.30;;;12.10;;
830;SDS011;397;50.564;7.272;2023-11-18T09:25:57;15.00;;;12.60;;
830;SDS011;397;50.564;7.272;2023-11-18T09:28:26;16.60;;;14.80;;
830;SDS011;397;50.564;7.272;2023-11-18T09:30:57;15.77;;;12.40;;
830;SDS011;397;50.564;7.272;2023-11-18T09:33:26;15.33;;;13.10;;
830;SDS011;397;50.564;7.272;2023-11-18T09:35:57;16.47;;;12.03;;
830;SDS011;397;50.564;7.272;2023-11-18T09:38:29;14.53;;;11.80;;
830;SDS011;397;50.564;7.272;2023-11-18T09:41:01;16.73;;;13.23;;
830;SDS011;397;50.564;7.272;2023-11-18T09:43:32;14.90;;;11.33;;
830;SDS011;397;50.564;7.272;2023-11-18T09:46:03;15.07;;;11.93;;
830;SDS011;397;50.564;7.272;2023-11-18T09:48:36;15.00;;;12.63;;
830;SDS011;397;50.564;7.272;2023-11-18T09:51:06;20.10;;;12.67;;
830;SDS011;397;50.564;7.272;2023-11-18T09:53:38;14.17;;;11.70;;
830;SDS011;397;50.564;7.272;2023-11-18T09:56:16;13.57;;;11.77;;
830;SDS011;397;50.564;7.272;2023-11-18T09:58:43;16.40;;;11.37;;
830;SDS011;397;50.564;7.272;2023-11-18T10:01:13;16.30;;;12.10;;
830;SDS011;397;50.564;7.272;2023-11-18T10:03:44;14.20;;;11.40;;
830;SDS011;397;50.564;7.272;2023-11-18T10:06:12;14.73;;;12.33;;
830;SDS011;397;50.564;7.272;2023-11-18T10:08:42;15.33;;;11.50;;
830;SDS011;397;50.564;7.272;2023-11-18T10:11:11;14.73;;;11.63;;
830;SDS011;397;50.564;7.272;2023-11-18T10:13:39;13.53;;;11.20;;
830;SDS011;397;50.564;7.272;2023-11-18T10:16:08;12.00;;;9.10;;
830;SDS011;397;50.564;7.272;2023-11-18T10:18:37;19.73;;;10.60;;
830;SDS011;397;50.564;7.272;2023-11-18T10:21:07;12.20;;;9.67;;
830;SDS011;397;50.564;7.272;2023-11-18T10:23:37;12.93;;;9.47;;
830;SDS011;397;50.564;7.272;2023-11-18T10:26:05;10.43;;;7.93;;
830;SDS011;397;50.564;7.272;2023-11-18T10:28:34;16.20;;;10.97;;
830;SDS011;397;50.564;7.272;2023-11-18T10:31:06;10.33;;;7.60;;
830;SDS011;397;50.564;7.272;2023-11-18T10:33:36;17.27;;;9.43;;
830;SDS011;397;50.564;7.272;2023-11-18T10:36:05;10.17;;;8.70;;
830;SDS011;397;50.564;7.272;2023-11-18T10:38:38;9.90;;;8.57;;
830;SDS011;397;50.564;7.272;2023-11-18T10:41:11;13.33;;;8.87;;
830;SDS011;397;50.564;7.272;2023-11-18T10:43:38;10.80;;;7.90;;
830;SDS011;397;50.564;7.272;2023-11-18T10:46:12;14.27;;;7.90;;
830;SDS011;397;50.564;7.272;2023-11-18T10:48:40;13.40;;;8.00;;
830;SDS011;397;50.564;7.272;2023-11-18T10:51:12;8.83;;;7.23;;
830;SDS011;397;50.564;7.272;2023-11-18T10:53:48;9.33;;;7.13;;
830;SDS011;397;50.564;7.272;2023-11-18T10:56:22;8.40;;;7.30;;
830;SDS011;397;50.564;7.272;2023-11-18T10:58:59;9.07;;;7.50;;
830;SDS011;397;50.564;7.272;2023-11-18T11:01:33;15.80;;;8.07;;
830;SDS011;397;50.564;7.272;2023-11-18T11:04:06;11.40;;;8.27;;
830;SDS011;397;50.564;7.272;2023-11-18T11:06:40;10.90;;;7.77;;
830;SDS011;397;50.564;7.272;2023-11-18T11:09:08;9.33;;;7.57;;
830;SDS011;397;50.564;7.272;2023-11-18T11:11:43;12.43;;;8.70;;
830;SDS011;397;50.564;7.272;2023-11-18T11:14:12;10.23;;;7.97;;
830;SDS011;397;50.564;7.272;2023-11-18T11:16:58;9.70;;;7.60;;
830;SDS011;397;50.564;7.272;2023-11-18T11:19:26;15.27;;;7.63;;
830;SDS011;397;50.564;7.272;2023-11-18T11:22:00;12.53;;;8.50;;
830;SDS011;397;50.564;7.272;2023-11-18T11:27:23;10.50;;;8.10;;
830;SDS011;397;50.564;7.272;2023-11-18T11:30:01;9.90;;;8.03;;
830;SDS011;397;50.564;7.272;2023-11-18T11:32:39;11.00;;;8.43;;
830;SDS011;397;50.564;7.272;2023-11-18T11:35:06;13.63;;;10.07;;
830;SDS011;397;50.564;7.272;2023-11-18T11:37:39;12.00;;;9.73;;
830;SDS011;397;50.564;7.272;2023-11-18T11:40:08;13.00;;;10.23;;
830;SDS011;397;50.564;7.272;2023-11-18T11:42:37;11.60;;;9.90;;
830;SDS011;397;50.564;7.272;2023-11-18T11:45:06;12.70;;;10.43;;
830;SDS011;397;50.564;7.272;2023-11-18T11:47:36;16.70;;;10.57;;
830;SDS011;397;50.564;7.272;2023-11-18T11:50:10;11.77;;;9.07;;
830;SDS011;397;50.564;7.272;2023-11-18T11:52:43;12.90;;;11.50;;
830;SDS011;397;50.564;7.272;2023-11-18T11:55:27;10.77;;;8.60;;
830;SDS011;397;50.564;7.272;2023-11-18T11:58:26;14.10;;;10.60;;
830;SDS011;397;50.564;7.272;2023-11-18T12:01:00;11.83;;;8.70;;
830;SDS011;397;50.564;7.272;2023-11-18T12:03:37;12.07;;;8.30;;
830;SDS011;397;50.564;7.272;2023-11-18T12:06:05;10.63;;;8.30;;
830;SDS011;397;50.564;7.272;2023-11-18T12:08:36;13.07;;;9.00;;
830;SDS011;397;50.564;7.272;2023-11-18T12:11:05;18.63;;;8.13;;
830;SDS011;397;50.564;7.272;2023-11-18T12:13:35;10.60;;;7.70;;
830;SDS011;397;50.564;7.272;2023-11-18T12:16:06;12.23;;;8.10;;
830;SDS011;397;50.564;7.272;2023-11-18T12:18:35;15.83;;;8.80;;
830;SDS011;397;50.564;7.272;2023-11-18T12:21:03;11.60;;;6.70;;
830;SDS011;397;50.564;7.272;2023-11-18T12:23:31;13.40;;;8.73;;
830;SDS011;397;50.564;7.272;2023-11-18T12:26:00;9.63;;;7.23;;
830;SDS011;397;50.564;7.272;2023-11-18T12:28:33;7.03;;;6.33;;
830;SDS011;397;50.564;7.272;2023-11-18T12:31:01;11.30;;;6.80;;
830;SDS011;397;50.564;7.272;2023-11-18T12:41:55;10.47;;;6.47;;
830;SDS011;397;50.564;7.272;2023-11-18T12:44:53;8.00;;;5.63;;
830;SDS011;397;50.564;7.272;2023-11-18T12:47:36;7.53;;;5.73;;
830;SDS011;397;50.564;7.272;2023-11-18T12:50:08;7.93;;;6.00;;
830;SDS011;397;50.564;7.272;2023-11-18T12:52:38;8.63;;;5.73;;
830;SDS011;397;50.564;7.272;2023-11-18T12:55:08;7.00;;;4.90;;
830;SDS011;397;50.564;7.272;2023-11-18T12:57:37;7.07;;;5.10;;
830;SDS011;397;50.564;7.272;2023-11-18T13:00:05;6.67;;;4.40;;
830;SDS011;397;50.564;7.272;2023-11-18T13:02:35;7.30;;;5.00;;
830;SDS011;397;50.564;7.272;2023-11-18T13:05:05;7.30;;;4.90;;
830;SDS011;397;50.564;7.272;2023-11-18T13:07:34;6.57;;;5.10;;
830;SDS011;397;50.564;7.272;2023-11-18T13:10:02;9.63;;;5.30;;
830;SDS011;397;50.564;7.272;2023-11-18T13:12:31;8.73;;;4.33;;
830;SDS011;397;50.564;7.272;2023-11-18T13:15:00;9.10;;;5.33;;
830;SDS011;397;50.564;7.272;2023-11-18T13:17:27;8.00;;;5.03;;
830;SDS011;397;50.564;7.272;2023-11-18T13:19:55;7.50;;;5.23;;
830;SDS011;397;50.564;7.272;2023-11-18T13:22:23;6.27;;;4.53;;
830;SDS011;397;50.564;7.272;2023-11-18T13:24:53;7.50;;;5.27;;
830;SDS011;397;50.564;7.272;2023-11-18T13:27:20;7.33;;;4.33;;
830;SDS011;397;50.564;7.272;2023-11-18T13:29:49;10.93;;;6.20;;
830;SDS011;397;50.564;7.272;2023-11-18T13:32:18;9.90;;;6.20;;
830;SDS011;397;50.564;7.272;2023-11-18T13:34:48;8.33;;;5.40;;
830;SDS011;397;50.564;7.272;2023-11-18T13:37:17;9.70;;;6.67;;
830;SDS011;397;50.564;7.272;2023-11-18T13:39:53;8.07;;;5.60;;
830;SDS011;397;50.564;7.272;2023-11-18T13:42:20;9.30;;;5.47;;
830;SDS011;397;50.564;7.272;2023-11-18T13:44:49;8.00;;;6.00;;
830;SDS011;397;50.564;7.272;2023-11-18T13:47:19;9.40;;;6.47;;
830;SDS011;397;50.564;7.272;2023-11-18T13:49:54;10.83;;;5.97;;
830;SDS011;397;50.564;7.272;2023-11-18T13:52:20;11.33;;;6.30;;
830;SDS011;397;50.564;7.272;2023-11-18T13:54:48;8.37;;;5.40;;
830;SDS011;397;50.564;7.272;2023-11-18T13:57:18;8.00;;;6.03;;
830;SDS011;397;50.564;7.272;2023-11-18T13:59:51;8.53;;;5.73;;
830;SDS011;397;50.564;7.272;2023-11-18T14:02:20;7.77;;;6.70;;
830;SDS011;397;50.564;7.272;2023-11-18T14:04:48;8.57;;;5.80;;
830;SDS011;397;50.564;7.272;2023-11-18T14:07:18;10.73;;;7.20;;
830;SDS011;397;50.564;7.272;2023-11-18T14:09:46;11.80;;;6.10;;
830;SDS011;397;50.564;7.272;2023-11-18T14:12:13;6.90;;;5.87;;
830;SDS011;397;50.564;7.272;2023-11-18T14:14:40;7.43;;;5.90;;
830;SDS011;397;50.564;7.272;2023-11-18T14:17:08;8.30;;;5.83;;
830;SDS011;397;50.564;7.272;2023-11-18T14:19:38;11.17;;;6.13;;
830;SDS011;397;50.564;7.272;2023-11-18T14:22:07;8.77;;;6.70;;
830;SDS011;397;50.564;7.272;2023-11-18T14:24:35;8.80;;;5.83;;
830;SDS011;397;50.564;7.272;2023-11-18T14:27:02;7.50;;;4.97;;
830;SDS011;397;50.564;7.272;2023-11-18T14:29:35;6.40;;;4.93;;
830;SDS011;397;50.564;7.272;2023-11-18T14:32:03;7.70;;;5.00;;
830;SDS011;397;50.564;7.272;2023-11-18T14:34:33;7.50;;;4.80;;
830;SDS011;397;50.564;7.272;2023-11-18T14:37:00;6.00;;;5.40;;
830;SDS011;397;50.564;7.272;2023-11-18T14:39:28;10.33;;;6.30;;
830;SDS011;397;50.564;7.272;2023-11-18T14:41:55;9.17;;;4.90;;
830;SDS011;397;50.564;7.272;2023-11-18T14:44:23;5.83;;;4.50;;
830;SDS011;397;50.564;7.272;2023-11-18T14:46:51;8.20;;;4.20;;
830;SDS011;397;50.564;7.272;2023-11-18T14:49:20;4.47;;;4.03;;
830;SDS011;397;50.564;7.272;2023-11-18T14:51:48;7.27;;;4.50;;
830;SDS011;397;50.564;7.272;2023-11-18T14:54:15;6.73;;;5.40;;
830;SDS011;397;50.564;7.272;2023-11-18T14:56:43;9.30;;;5.90;;
830;SDS011;397;50.564;7.272;2023-11-18T14:59:13;6.37;;;4.60;;
830;SDS011;397;50.564;7.272;2023-11-18T15:01:40;12.20;;;3.87;;
830;SDS011;397;50.564;7.272;2023-11-18T15:04:09;4.87;;;4.03;;
830;SDS011;397;50.564;7.272;2023-11-18T15:06:37;5.43;;;4.27;;
830;SDS011;397;50.564;7.272;2023-11-18T15:09:06;5.23;;;4.73;;
830;SDS011;397;50.564;7.272;2023-11-18T15:11:35;6.87;;;4.33;;
830;SDS011;397;50.564;7.272;2023-11-18T15:14:03;10.93;;;5.00;;
830;SDS011;397;50.564;7.272;2023-11-18T15:16:33;8.97;;;4.80;;
830;SDS011;397;50.564;7.272;2023-11-18T15:19:00;6.37;;;4.77;;
830;SDS011;397;50.564;7.272;2023-11-18T15:21:28;11.60;;;5.77;;
830;SDS011;397;50.564;7.272;2023-11-18T15:23:55;8.07;;;5.13;;
830;SDS011;397;50.564;7.272;2023-11-18T15:26:24;7.40;;;4.83;;
830;SDS011;397;50.564;7.272;2023-11-18T15:28:52;7.07;;;4.53;;
830;SDS011;397;50.564;7.272;2023-11-18T15:31:19;7.07;;;4.80;;
830;SDS011;397;50.564;7.272;2023-11-18T15:33:48;5.73;;;5.13;;
830;SDS011;397;50.564;7.272;2023-11-18T15:36:16;5.10;;;4.20;;
830;SDS011;397;50.564;7.272;2023-11-18T15:38:43;6.50;;;4.40;;
830;SDS011;397;50.564;7.272;2023-11-18T15:41:12;7.33;;;6.40;;
830;SDS011;397;50.564;7.272;2023-11-18T15:43:39;9.47;;;4.50;;
830;SDS011;397;50.564;7.272;2023-11-18T15:46:08;7.80;;;4.53;;
830;SDS011;397;50.564;7.272;2023-11-18T15:48:36;4.77;;;4.27;;
830;SDS011;397;50.564;7.272;2023-11-18T15:51:04;7.63;;;4.97;;